Finley, ND (58230)

4:32 AM CDT on August 01, 2014 (GMT -0500)
Grand Forks Air Force Base (KRDR) Elev 912 ft | 47.96 °N, 97.40 °W | Change Station

Current weather conditions updated 34 minutes ago

Clear
Clear
60 °F
Feels Like 60 °F
N
5
Wind Variable Wind from NW

Today is forecast to be nearly the same temperature as yesterday.

Today
High -- | Low -- °F
--% Chance of Precip.
Yesterday
High -- | Low -- °F
Precip. -- in
6:08 AM 9:04 PM
Waxing Crescent, 25% visible
Pressure 30.05 in
Visibility 10.0 miles
Clouds Clear
Dew Point 60 °F
Humidity 100%
Rainfall 0.00 in
Snow Depth Not available.
UV 0 out of 12
Pollen 8.10 out of 12
Air Quality Not available.
Flu Activity Not available.
METAR KRDR 010858Z AUTO 32004KT 10SM CLR 15/15 A3004 RMK AO2 SLP175 T01540154 54000

More Conditions Fewer Conditions

Pressure 30.05 in
Visibility 10.0 miles
Clouds Clear
Dew Point 60 °F
Humidity 100%
Rainfall 0.00 in
Snow Depth Not available.
UV 0 out of 12
Pollen 8.10 out of 12
Air Quality Not available.
Flu Activity Not available.
METAR KRDR 010858Z AUTO 32004KT 10SM CLR 15/15 A3004 RMK AO2 SLP175 T01540154 54000

More Conditions Fewer Conditions

10-Day Weather Forecast

Almanac

Astronomy

Aug. 01, 2014 Rise Set
Actual Time 6:08 AM CDT 9:04 PM CDT
Civil Twilight 5:32 AM CDT 9:40 PM CDT
Nautical Twilight 4:46 AM CDT 10:26 PM CDT
Astronomical Twilight 3:50 AM CDT 11:22 PM CDT
Moon 12:00 PM CDT 11:21 PM CDT
Length of Visible Light 16h 08m
Length of Day
14h 56m
Tomorrow will be 2m 41s shorter.
Waxing Crescent, 25% of the Moon is Illuminated
Today
Waxing Crescent
Aug 3
First Quarter
Aug 10
Full
Aug 17
Last Quarter
Aug 25
New

Today's Extremes

State Highs State Lows

Community

WunderPhotos

Upload Photos

1,739,529 photos uploaded!

Nearby

Snow Depth

Station Depth Elevation
No new snow has been reported.

Earthquake Activity

City Distance Mag. Time & Date
No recent earthquake activity has been reported nearby.
Minimum magnitude displayed is 2.5.

Coastal Water Temperatures

Place Temperature
No Stations Reporting

Nearby Weather Stations

There are no personal weather stations in this area.